createdAt,value
2022-10-31T00:02:06.087Z,982.26
2022-10-31T00:08:30.674Z,982.28
2022-10-31T00:15:04.916Z,982.31
2022-10-31T00:21:36.705Z,982.26
2022-10-31T00:28:15.140Z,982.26
2022-10-31T00:34:39.111Z,982.31
2022-10-31T00:41:03.652Z,982.26
2022-10-31T00:47:29.136Z,982.2
2022-10-31T00:53:52.871Z,982.09
2022-10-31T01:00:19.065Z,982.08
2022-10-31T01:06:40.996Z,982.05
2022-10-31T01:19:51.722Z,982.06
2022-10-31T01:26:29.923Z,982.03
2022-10-31T01:33:07.373Z,981.98
2022-10-31T01:39:37.907Z,981.88
2022-10-31T01:46:16.607Z,981.86
2022-10-31T01:53:26.940Z,981.88
2022-10-31T02:00:23.900Z,981.88
2022-10-31T02:06:55.100Z,981.82
2022-10-31T02:13:41.310Z,981.74
2022-10-31T02:20:13.543Z,981.75
2022-10-31T02:27:26.748Z,981.74
2022-10-31T02:34:35.614Z,981.77
2022-10-31T02:41:49.143Z,981.71
2022-10-31T02:49:00.436Z,981.64
2022-10-31T02:55:46.776Z,981.63
2022-10-31T03:02:44.317Z,981.62
2022-10-31T03:09:49.025Z,981.64
2022-10-31T03:16:50.197Z,981.64
2022-10-31T03:23:57.651Z,981.64
2022-10-31T03:30:45.095Z,981.65
2022-10-31T03:37:34.221Z,981.67
2022-10-31T03:44:21.997Z,981.6
2022-10-31T03:50:57.745Z,981.58
2022-10-31T03:58:05.434Z,981.58
2022-10-31T04:04:57.167Z,981.6
2022-10-31T04:11:42.271Z,981.68
2022-10-31T04:18:27.785Z,981.73
2022-10-31T04:24:58.794Z,981.71
2022-10-31T04:31:26.006Z,981.64
2022-10-31T04:37:46.913Z,981.65
2022-10-31T04:44:12.154Z,981.61
2022-10-31T04:50:37.600Z,981.57
2022-10-31T04:57:17.841Z,981.58
2022-10-31T05:03:50.798Z,981.46
2022-10-31T05:10:20.259Z,981.39
2022-10-31T05:16:50.826Z,981.36
2022-10-31T05:23:22.054Z,981.31
2022-10-31T05:29:48.938Z,981.36
2022-10-31T05:36:20.103Z,981.27
2022-10-31T05:42:50.820Z,981.24
2022-10-31T05:49:14.817Z,981.21
2022-10-31T05:55:45.703Z,981.18
2022-10-31T06:02:15.231Z,981.08
2022-10-31T06:08:49.862Z,981.08
2022-10-31T06:15:25.196Z,981.06
2022-10-31T06:21:53.630Z,981.07
2022-10-31T06:28:19.287Z,981.07
2022-10-31T06:34:42.202Z,981.14
2022-10-31T06:41:07.181Z,981.17
2022-10-31T06:47:32.450Z,981.21
2022-10-31T06:53:55.250Z,981.22
2022-10-31T07:00:25.332Z,981.23
2022-10-31T07:06:55.547Z,981.23
2022-10-31T07:13:26.133Z,981.28
2022-10-31T07:19:58.871Z,981.33
2022-10-31T07:26:35.278Z,981.37
2022-10-31T07:32:56.173Z,981.31
2022-10-31T07:39:23.932Z,981.37
2022-10-31T07:45:57.320Z,981.33
2022-10-31T07:52:30.897Z,981.35
2022-10-31T07:58:59.893Z,981.35
2022-10-31T08:05:39.209Z,981.34
2022-10-31T08:12:06.925Z,981.34
2022-10-31T08:18:33.179Z,981.41
2022-10-31T08:25:07.953Z,981.3
2022-10-31T08:31:44.125Z,981.22
2022-10-31T08:38:14.930Z,981.24
2022-10-31T08:44:50.954Z,981.27
2022-10-31T08:51:23.326Z,981.17
2022-10-31T08:57:53.066Z,981.1
2022-10-31T09:04:28.523Z,981.05
2022-10-31T09:10:55.945Z,980.89
2022-10-31T09:17:35.368Z,980.88
2022-10-31T09:24:01.303Z,980.85
2022-10-31T09:30:33.440Z,980.8
2022-10-31T09:37:06.928Z,980.68
2022-10-31T09:43:50.931Z,980.7
2022-10-31T09:50:54.374Z,980.59
2022-10-31T09:57:55.972Z,980.57
2022-10-31T10:04:53.866Z,980.65
2022-10-31T10:11:51.373Z,980.73
2022-10-31T10:18:51.827Z,980.64
2022-10-31T10:25:53.079Z,980.59
2022-10-31T10:33:04.314Z,980.59
2022-10-31T10:40:11.679Z,980.47
2022-10-31T10:46:51.009Z,980.42
2022-10-31T10:54:13.752Z,980.21
2022-10-31T11:00:55.115Z,980.4
2022-10-31T11:07:41.884Z,980.2
2022-10-31T11:14:27.942Z,980.23
2022-10-31T11:21:25.345Z,980.18
2022-10-31T11:28:36.506Z,980.11
2022-10-31T11:35:41.372Z,980.01
2022-10-31T11:42:57.869Z,979.71
2022-10-31T11:50:08.281Z,979.82
2022-10-31T11:57:25.542Z,979.8
2022-10-31T12:04:39.324Z,979.52
2022-10-31T12:11:46.213Z,979.17
2022-10-31T12:18:44.139Z,979.48
2022-10-31T12:25:45.453Z,979.39
2022-10-31T12:32:51.457Z,979.15
2022-10-31T12:39:57.364Z,979.16
2022-10-31T12:46:59.099Z,979.18
2022-10-31T12:54:00.946Z,978.95
2022-10-31T13:01:05.577Z,978.76
2022-10-31T13:08:19.358Z,978.67
2022-10-31T13:15:33.812Z,978.53
2022-10-31T13:22:43.056Z,978.43
2022-10-31T13:29:42.705Z,978.22
2022-10-31T13:36:39.689Z,978.09
2022-10-31T13:43:51.557Z,978.09
2022-10-31T13:50:49.360Z,978.01
2022-10-31T13:57:35.803Z,978.03
2022-10-31T14:04:35.308Z,978.24
2022-10-31T14:11:38.168Z,977.93
2022-10-31T14:18:35.047Z,977.91
2022-10-31T14:25:17.419Z,977.32
2022-10-31T14:32:19.051Z,977.23
2022-10-31T14:39:19.429Z,977.53
2022-10-31T14:46:19.488Z,977.21
2022-10-31T14:53:14.123Z,977.04
2022-10-31T15:00:05.082Z,976.9
2022-10-31T15:07:00.232Z,976.99
2022-10-31T15:13:58.254Z,976.77
2022-10-31T15:20:39.644Z,976.68
2022-10-31T15:27:23.630Z,976.54
2022-10-31T15:34:19.864Z,976.76
2022-10-31T15:41:09.958Z,977.04
2022-10-31T15:47:50.055Z,977.03
2022-10-31T15:54:58.340Z,976.94
2022-10-31T16:01:40.466Z,976.72
2022-10-31T16:08:29.349Z,977.18
2022-10-31T16:15:13.890Z,976.85
2022-10-31T16:22:08.209Z,977.15
2022-10-31T16:29:06.738Z,976.94
2022-10-31T16:36:22.684Z,976.92
2022-10-31T16:42:48.368Z,977.1
2022-10-31T16:49:35.461Z,977.12
2022-10-31T16:56:11.168Z,977.12
2022-10-31T17:02:57.114Z,977.09
2022-10-31T17:09:31.149Z,977.14
2022-10-31T17:16:12.537Z,977.14
2022-10-31T17:22:53.118Z,977.16
2022-10-31T17:29:17.266Z,977.13
2022-10-31T17:35:52.064Z,977.19
2022-10-31T17:42:23.151Z,977.18
2022-10-31T17:48:51.575Z,977.11
2022-10-31T17:55:18.085Z,977.12
2022-10-31T18:01:55.416Z,977.11
2022-10-31T18:08:27.163Z,977.11
2022-10-31T18:15:00.075Z,977.08
2022-10-31T18:21:28.324Z,977.08
2022-10-31T18:27:51.519Z,977.06
2022-10-31T18:34:17.130Z,977
2022-10-31T18:40:49.139Z,976.97
2022-10-31T18:47:17.683Z,976.96
2022-10-31T18:53:53.884Z,976.93
2022-10-31T19:00:24.444Z,976.78
2022-10-31T19:07:05.180Z,976.69
2022-10-31T19:13:44.159Z,976.66
2022-10-31T19:20:09.012Z,976.62
2022-10-31T19:26:36.230Z,976.53
2022-10-31T19:33:01.532Z,976.49
2022-10-31T19:39:44.854Z,976.42
2022-10-31T19:46:48.027Z,976.4
2022-10-31T19:52:53.588Z,976.36
2022-10-31T19:59:23.185Z,976.39
2022-10-31T20:05:54.764Z,976.37
2022-10-31T20:12:21.103Z,976.3
2022-10-31T20:18:53.519Z,976.24
2022-10-31T20:25:16.420Z,976.25
2022-10-31T20:31:49.317Z,976.25
2022-10-31T20:38:12.505Z,976.24
2022-10-31T20:44:37.790Z,976.19
2022-10-31T20:51:12.209Z,976.2
2022-10-31T20:57:41.465Z,976.23
2022-10-31T21:04:09.892Z,976.12
2022-10-31T21:10:37.119Z,976.07
2022-10-31T21:17:12.718Z,976.17
2022-10-31T21:23:44.358Z,976.06
2022-10-31T21:30:09.558Z,976.14
2022-10-31T21:36:33.300Z,976.13
2022-10-31T21:43:00.469Z,976.06
2022-10-31T21:49:28.298Z,975.95
2022-10-31T21:55:59.235Z,975.86
2022-10-31T22:02:33.968Z,975.83
2022-10-31T22:09:03.272Z,975.82
2022-10-31T22:15:36.145Z,975.75
2022-10-31T22:22:05.986Z,975.79
2022-10-31T22:28:29.151Z,975.84
2022-10-31T22:34:59.639Z,975.92
2022-10-31T22:41:37.764Z,975.92
2022-10-31T22:48:00.488Z,975.87
2022-10-31T22:54:24.301Z,975.84
2022-10-31T23:00:47.803Z,975.74
2022-10-31T23:07:19.020Z,975.82
2022-10-31T23:13:51.285Z,975.63
2022-10-31T23:20:27.823Z,975.74
2022-10-31T23:26:59.300Z,975.78
2022-10-31T23:33:34.167Z,975.78
2022-10-31T23:40:02.890Z,975.58
2022-10-31T23:46:35.287Z,975.64
2022-10-31T23:52:59.307Z,975.64
2022-10-31T23:59:26.862Z,975.38
